Squaw Lake, Minnesota
Current Conditions -  °F | °C
As of 10:33 AM on Tuesday 21 Oct 2014 (Local Time) from KFOZ Reporting Station
Broken Clouds Broken Clouds  
Wind Chill: 40°   Ceiling: 1700
Heat Index: 45°   Visibility: 10mi
Dew Point: 37°   Wind: 9mph
Humidity: 76%   Direction: 140°SE
Pressure: 30.18"   Gusts: 17mph
Location:  47.63°N, 94.14°W
Report Text: KFOZ 211533Z AUTO 14008G15KT 10SM BKN017 07/03 A3018 RMK AO2
Loading
Personal Weather Stations






























Interactive Weather Map
Tropical Storm Tracking
New forecast layout! Learn more

10-Day Weather Forecast

Advertisements
Track Severe Weather on mobile